Mt Baker - Pan Dome WA US NWAVAL current weather conditions

sailwx.info

Wind from 149 at 12 knots gusting 17

Air temperature -2.2° C
Dewpoint -8.0° C

Last reported at 2019-Dec-13 01:00 UTC.
Time now 2019-Dec-13 02:23 UTC

Location: N 48°51' W 121°41'.
View on Google Maps.

See reports from other nearby stations

  
Tides and Currents Weather Stations Pressure Air Temp Water Temp Dewpoint Dewpoint Depression Visibility Wind Speed Wind Dir Waves Ship Positions
date/time (UTC)wind fromknots sea level pressurealtimeterstation pressurevisibilityair tempwater tempwave heightnotes
2019-Dec-13 01:00 149 12 gusting 17 -2.2
2019-Dec-13 00:00 146 14 gusting 20 -2.0
2019-Dec-12 23:00 143 13 gusting 18 -2.0
2019-Dec-12 22:00 138 13 gusting 19 -1.9
2019-Dec-12 21:00 138 14 gusting 22 -1.8
2019-Dec-12 20:00 151 12 gusting 19 -2.0
2019-Dec-12 19:00 147 12 gusting 17 -1.8
2019-Dec-12 18:00 134 16 gusting 24 -1.7
2019-Dec-12 17:00 144 13 gusting 24 -1.7
2019-Dec-12 16:00 179 11 gusting 22 -1.6
2019-Dec-12 15:00 215 7 gusting 15 -1.8
2019-Dec-12 14:00 215 9 gusting 18 -1.8
2019-Dec-12 13:00 215 7 gusting 13 -1.8
2019-Dec-12 12:00 151 6 gusting 15 -1.7
2019-Dec-12 11:00 155 8 gusting 19 -1.6
2019-Dec-12 10:00 151 13 gusting 23 -1.4
2019-Dec-12 09:00 135 21 gusting 28 -1.1
2019-Dec-12 08:00 148 18 gusting 25 -1.9
2019-Dec-12 06:00 157 16 gusting 27 -1.4
2019-Dec-12 05:00 162 9 gusting 19 -1.4
2019-Dec-12 04:00 158 13 gusting 23 -1.8
2019-Dec-12 03:00 161 13 gusting 22 -1.9
2019-Dec-12 02:00 164 18 gusting 29 -1.6
2019-Dec-12 01:00 168 22 gusting 31 -1.6
2019-Dec-12 00:00 162 26 gusting 37 -1.4
2019-Dec-11 23:00 173 16 gusting 26 -1.4
2019-Dec-11 22:00 175 14 gusting 21 -2.0
2019-Dec-11 21:00 191 8 gusting 17 -2.0
2019-Dec-11 20:00 171 13 gusting 23 -2.1
2019-Dec-11 19:00 163 16 gusting 22 -2.3
2019-Dec-11 18:00 154 19 gusting 26 -2.3
2019-Dec-11 17:00 147 19 gusting 25 -2.3
2019-Dec-11 16:00 154 17 gusting 24 -2.0
2019-Dec-11 15:00 154 11 gusting 20 -1.8
2019-Dec-11 14:00 154 10 gusting 14 -1.9
2019-Dec-11 13:00 152 11 gusting 15 -2.2
2019-Dec-11 12:00 147 10 gusting 15 -1.9
2019-Dec-11 11:00 151 3 gusting 11 -2.0
2019-Dec-11 10:00 154 4 gusting 8 -1.5
2019-Dec-11 09:00 156 6 gusting 9 -1.4
2019-Dec-11 08:00 150 7 gusting 9 -1.4
2019-Dec-11 07:00 145 8 gusting 12 -1.3
2019-Dec-11 06:00 149 8 gusting 11 -1.2
2019-Dec-11 05:00 152 9 gusting 12 -1.3
2019-Dec-11 04:00 146 11 gusting 14 -1.3
2019-Dec-11 03:00 153 12 gusting 16 -1.4
2019-Dec-11 02:00 153 15 gusting 21 -1.5